Terminal Aerodrome Forecast
Issued by NWS

Current Version | Previous Version | Text Only | Print | Product List | Glossary On
Versions: 1 2 3 4 5 6 7 8 9 10 11 12 13 14 15
000
FTUS45 KTFX 202000 AAA
TAFHLN
TAF AMD
KHLN 202056Z 2021/2118 VRB06KT P6SM VCTS SCT060CB BKN100
      TEMPO 2021/2024 VRB15G30KT
     FM210100 VRB03KT P6SM VCSH SCT040 BKN060=

USA.gov is the U.S. government's official web portal to all federal, state and local government web resources and services.